White House, Tennessee
Current Conditions -  °F | °C
As of 1:35 AM on Saturday 29 Nov 2014 (Local Time) from KM91 Reporting Station
Clear Clear  
Wind Chill: 37°   Ceiling: Unl
Heat Index: 43°   Visibility: 10mi
Dew Point: 27°   Wind: 12mph
Humidity: 53%   Direction: 210°SSW
Pressure: 30.1"   Gusts: NA
Location:  36.46°N, 86.67°W
Report Text: KM91 290735Z AUTO 21010KT 10SM CLR 06/M03 A3010 RMK
Loading
Personal Weather Stations






























Interactive Weather Map New forecast layout! Learn more

10-Day Weather Forecast

Advertisements
Track Severe Weather on mobile